Time;durP1;ratioP1;P1;durP2;ratioP2;P2;SDS_P1;SDS_P2;PMS_P1;PMS_P2;Temp;Humidity;BMP_temperature;BMP_pressure;BME280_temperature;BME280_humidity;BME280_pressure;Samples;Min_cycle;Max_cycle;Signal;HPM_P1;HPM_P2
2024/01/09 00:01:46;;;;;;;5.33;3.30;;;;;;;;;;5071679;28;20436;-47
2024/01/09 00:04:14;;;;;;;4.43;3.70;;;;;;;;;;5071558;28;20718;-47
2024/01/09 00:06:40;;;;;;;5.23;3.87;;;;;;;;;;5071509;28;20242;-47
2024/01/09 00:09:06;;;;;;;6.37;3.63;;;;;;;;;;5071714;28;20478;-47
2024/01/09 00:11:32;;;;;;;4.00;3.27;;;;;;;;;;5071171;28;20516;-47
2024/01/09 00:13:58;;;;;;;3.37;3.03;;;;;;;;;;5071779;28;20438;-47
2024/01/09 00:16:24;;;;;;;5.80;4.13;;;;;;;;;;5071116;28;20557;-47
2024/01/09 00:18:53;;;;;;;3.53;3.23;;;;;;;;;;5071500;28;20200;-47
2024/01/09 00:21:20;;;;;;;4.37;3.80;;;;;;;;;;5071183;28;20540;-47
2024/01/09 00:23:46;;;;;;;4.80;3.60;;;;;;;;;;5071310;28;21017;-47
2024/01/09 00:26:12;;;;;;;4.20;3.53;;;;;;;;;;5071341;28;20516;-47
2024/01/09 00:28:38;;;;;;;4.63;3.30;;;;;;;;;;5071237;28;20282;-47
2024/01/09 00:31:04;;;;;;;5.10;4.03;;;;;;;;;;5071299;28;20510;-47
2024/01/09 00:33:30;;;;;;;4.80;3.70;;;;;;;;;;5071184;28;20970;-47
2024/01/09 00:35:56;;;;;;;5.97;4.03;;;;;;;;;;5071360;28;20202;-47
2024/01/09 00:38:24;;;;;;;5.23;3.70;;;;;;;;;;5071372;28;20662;-47
2024/01/09 00:40:50;;;;;;;4.80;4.07;;;;;;;;;;5071171;28;20243;-47
2024/01/09 00:43:16;;;;;;;4.60;3.80;;;;;;;;;;5071358;28;20932;-47
2024/01/09 00:45:42;;;;;;;5.00;4.00;;;;;;;;;;5074629;28;20204;-47
2024/01/09 00:48:07;;;;;;;4.80;3.80;;;;;;;;;;5074938;28;21253;-47
2024/01/09 00:50:34;;;;;;;4.27;3.60;;;;;;;;;;5074726;28;20242;-47
2024/01/09 00:53:00;;;;;;;4.73;4.20;;;;;;;;;;5074910;28;20226;-47
2024/01/09 00:55:27;;;;;;;4.77;3.60;;;;;;;;;;5074911;28;20442;-47
2024/01/09 00:57:53;;;;;;;4.67;3.80;;;;;;;;;;5075181;28;20504;-48
2024/01/09 01:00:19;;;;;;;4.83;3.73;;;;;;;;;;5074764;28;20429;-47
2024/01/09 01:02:45;;;;;;;6.37;4.47;;;;;;;;;;5074934;28;20434;-47
2024/01/09 01:05:14;;;;;;;5.10;3.90;;;;;;;;;;5074811;28;20788;-47
2024/01/09 01:07:40;;;;;;;5.13;4.00;;;;;;;;;;5074560;28;20437;-48
2024/01/09 01:10:06;;;;;;;4.90;3.77;;;;;;;;;;5074553;28;20434;-48
2024/01/09 01:12:33;;;;;;;4.63;3.80;;;;;;;;;;5072580;28;20450;-49
2024/01/09 01:14:59;;;;;;;5.17;4.03;;;;;;;;;;5072955;28;20901;-48
2024/01/09 01:17:25;;;;;;;4.83;3.93;;;;;;;;;;5074626;28;20458;-47
2024/01/09 01:19:51;;;;;;;6.20;4.50;;;;;;;;;;5074537;28;20203;-48
2024/01/09 01:22:17;;;;;;;5.67;4.20;;;;;;;;;;5074461;28;20283;-49
2024/01/09 01:24:43;;;;;;;4.57;3.43;;;;;;;;;;5074640;28;20658;-48
2024/01/09 01:27:09;;;;;;;5.43;3.93;;;;;;;;;;5074398;28;20227;-47
2024/01/09 01:29:36;;;;;;;5.30;4.07;;;;;;;;;;5074327;28;20245;-48
2024/01/09 01:32:02;;;;;;;4.90;3.90;;;;;;;;;;5074579;28;20441;-47
2024/01/09 01:34:29;;;;;;;5.63;4.07;;;;;;;;;;5074258;28;20477;-48
2024/01/09 01:36:55;;;;;;;5.83;4.47;;;;;;;;;;5074381;28;20434;-48
2024/01/09 01:39:21;;;;;;;4.70;4.17;;;;;;;;;;5074214;28;20461;-48
2024/01/09 01:41:47;;;;;;;5.27;4.00;;;;;;;;;;5074244;28;20430;-48
2024/01/09 01:44:16;;;;;;;7.60;4.50;;;;;;;;;;5074418;28;20434;-48
2024/01/09 01:46:43;;;;;;;5.13;3.67;;;;;;;;;;5074325;28;20199;-48
2024/01/09 01:49:11;;;;;;;6.17;4.10;;;;;;;;;;5074156;28;20804;-48
2024/01/09 01:51:37;;;;;;;5.67;4.10;;;;;;;;;;5073869;28;20520;-49
2024/01/09 01:54:03;;;;;;;5.03;3.80;;;;;;;;;;5073986;28;20576;-49
2024/01/09 01:56:29;;;;;;;6.23;3.67;;;;;;;;;;5073805;28;20488;-49
2024/01/09 01:58:55;;;;;;;6.03;4.20;;;;;;;;;;5074001;28;20442;-48
2024/01/09 02:01:21;;;;;;;4.53;3.93;;;;;;;;;;5073846;28;20437;-47
2024/01/09 02:03:48;;;;;;;4.63;3.73;;;;;;;;;;5073792;28;20457;-47
2024/01/09 02:06:14;;;;;;;4.93;3.50;;;;;;;;;;5073812;28;20457;-47
2024/01/09 02:08:42;;;;;;;5.93;4.00;;;;;;;;;;5073587;28;20529;-48
2024/01/09 02:11:09;;;;;;;5.80;4.20;;;;;;;;;;5073636;28;20896;-47
2024/01/09 02:13:35;;;;;;;5.23;3.97;;;;;;;;;;5073465;28;20481;-47
2024/01/09 02:16:01;;;;;;;4.20;3.40;;;;;;;;;;5073583;28;20429;-48
2024/01/09 02:18:27;;;;;;;5.17;3.77;;;;;;;;;;5073455;28;20251;-47
2024/01/09 02:20:54;;;;;;;5.27;3.97;;;;;;;;;;5073503;28;20488;-47
2024/01/09 02:23:20;;;;;;;4.57;3.80;;;;;;;;;;5073356;28;20211;-47
2024/01/09 02:25:46;;;;;;;4.97;3.87;;;;;;;;;;5073393;28;20457;-48
2024/01/09 02:28:14;;;;;;;4.43;3.73;;;;;;;;;;5073472;28;20733;-48
2024/01/09 02:30:42;;;;;;;4.90;3.73;;;;;;;;;;5073353;28;20475;-48
2024/01/09 02:33:08;;;;;;;4.90;4.20;;;;;;;;;;5073116;28;20469;-48
2024/01/09 02:35:34;;;;;;;5.13;3.90;;;;;;;;;;5073013;28;20438;-47
2024/01/09 02:38:00;;;;;;;5.60;3.97;;;;;;;;;;5073409;28;20464;-48
2024/01/09 02:40:26;;;;;;;4.87;3.47;;;;;;;;;;5073021;28;21007;-48
2024/01/09 02:42:52;;;;;;;5.43;3.57;;;;;;;;;;5073141;28;20430;-48
2024/01/09 02:45:18;;;;;;;4.60;3.83;;;;;;;;;;5073015;28;20207;-48
2024/01/09 02:47:46;;;;;;;4.97;3.83;;;;;;;;;;5072896;28;20994;-48
2024/01/09 02:50:12;;;;;;;4.37;3.50;;;;;;;;;;5072931;28;20430;-48
2024/01/09 02:52:38;;;;;;;4.80;3.90;;;;;;;;;;5072802;28;20660;-48
2024/01/09 02:55:04;;;;;;;6.53;4.33;;;;;;;;;;5072756;28;20485;-47
2024/01/09 02:57:30;;;;;;;4.23;3.47;;;;;;;;;;5072903;28;20203;-48
2024/01/09 02:59:56;;;;;;;7.07;3.80;;;;;;;;;;5072713;28;20430;-48
2024/01/09 03:02:22;;;;;;;4.83;3.77;;;;;;;;;;5072565;28;20837;-48
2024/01/09 03:04:49;;;;;;;4.30;3.90;;;;;;;;;;5072463;28;20920;-48
2024/01/09 03:07:15;;;;;;;5.70;4.00;;;;;;;;;;5072091;28;20199;-48
2024/01/09 03:09:43;;;;;;;6.30;3.73;;;;;;;;;;5072409;28;20434;-48
2024/01/09 03:12:09;;;;;;;4.50;3.90;;;;;;;;;;5072344;28;20282;-48
2024/01/09 03:14:37;;;;;;;5.87;4.50;;;;;;;;;;5072134;28;20567;-48
2024/01/09 03:17:04;;;;;;;5.80;4.00;;;;;;;;;;5072273;28;20450;-47
2024/01/09 03:19:31;;;;;;;5.60;4.00;;;;;;;;;;5072224;28;20434;-48
2024/01/09 03:21:58;;;;;;;5.93;4.50;;;;;;;;;;5072537;28;20434;-48
2024/01/09 03:24:24;;;;;;;5.30;4.10;;;;;;;;;;5072044;28;20430;-48
2024/01/09 03:26:50;;;;;;;6.07;4.03;;;;;;;;;;5072177;28;20434;-48
2024/01/09 03:29:17;;;;;;;4.60;4.10;;;;;;;;;;5072136;28;20207;-48
2024/01/09 03:31:43;;;;;;;4.80;3.80;;;;;;;;;;5072044;28;20191;-48
2024/01/09 03:34:09;;;;;;;5.80;4.30;;;;;;;;;;5071984;28;20539;-48
2024/01/09 03:36:36;;;;;;;5.30;3.90;;;;;;;;;;5071836;28;20436;-48
2024/01/09 03:39:04;;;;;;;4.10;3.60;;;;;;;;;;5072190;28;20464;-48
2024/01/09 03:41:31;;;;;;;5.07;3.83;;;;;;;;;;5071918;28;20457;-48
2024/01/09 03:43:57;;;;;;;5.50;4.30;;;;;;;;;;5071978;28;21005;-48
2024/01/09 03:46:23;;;;;;;5.20;4.00;;;;;;;;;;5072008;28;20446;-48
2024/01/09 03:48:50;;;;;;;5.20;4.03;;;;;;;;;;5071693;28;20438;-48
2024/01/09 03:51:15;;;;;;;4.90;4.37;;;;;;;;;;5071977;28;20211;-48
2024/01/09 03:53:42;;;;;;;5.07;3.97;;;;;;;;;;5071648;28;20538;-48
2024/01/09 03:56:09;;;;;;;6.00;3.60;;;;;;;;;;5071724;28;20731;-48
2024/01/09 03:58:35;;;;;;;5.13;3.80;;;;;;;;;;5071658;28;20437;-48
2024/01/09 04:01:02;;;;;;;4.20;3.77;;;;;;;;;;5071940;28;20807;-48
2024/01/09 04:03:28;;;;;;;5.03;3.70;;;;;;;;;;5071720;28;20207;-48
2024/01/09 04:05:54;;;;;;;4.33;3.57;;;;;;;;;;5071576;28;20440;-48
2024/01/09 04:08:20;;;;;;;5.90;4.10;;;;;;;;;;5071643;28;20654;-48
2024/01/09 04:10:46;;;;;;;4.60;3.40;;;;;;;;;;5071548;28;20470;-47
2024/01/09 04:13:13;;;;;;;6.00;4.10;;;;;;;;;;5071729;28;20789;-48
2024/01/09 04:15:39;;;;;;;7.13;3.90;;;;;;;;;;5071388;28;20924;-48
2024/01/09 04:18:05;;;;;;;5.40;3.70;;;;;;;;;;5073033;28;20985;-48
2024/01/09 04:20:31;;;;;;;4.67;3.70;;;;;;;;;;5078175;28;20520;-48
2024/01/09 04:22:57;;;;;;;5.57;4.17;;;;;;;;;;5078248;28;20437;-48
2024/01/09 04:25:23;;;;;;;5.50;3.77;;;;;;;;;;5078202;28;20422;-47
2024/01/09 04:27:49;;;;;;;5.73;3.97;;;;;;;;;;5078289;28;20620;-48
2024/01/09 04:30:16;;;;;;;5.83;3.87;;;;;;;;;;5078249;28;20203;-47
2024/01/09 04:32:42;;;;;;;6.93;4.20;;;;;;;;;;5078102;28;20199;-48
2024/01/09 04:35:08;;;;;;;4.87;3.80;;;;;;;;;;5078021;28;20850;-47
2024/01/09 04:37:34;;;;;;;4.63;3.60;;;;;;;;;;5077899;28;20245;-48
2024/01/09 04:40:00;;;;;;;5.83;4.67;;;;;;;;;;5078171;28;20805;-48
2024/01/09 04:42:27;;;;;;;5.40;3.70;;;;;;;;;;5077995;28;20206;-48
2024/01/09 04:44:53;;;;;;;4.10;3.70;;;;;;;;;;5077874;28;20437;-47
2024/01/09 04:47:20;;;;;;;4.47;3.60;;;;;;;;;;5077900;28;20441;-48
2024/01/09 04:49:46;;;;;;;5.63;4.00;;;;;;;;;;5077739;28;20495;-47
2024/01/09 04:52:12;;;;;;;6.67;4.30;;;;;;;;;;5078045;28;20479;-48
2024/01/09 04:54:38;;;;;;;6.27;4.17;;;;;;;;;;5077911;28;20999;-48
2024/01/09 04:57:04;;;;;;;5.80;4.20;;;;;;;;;;5077821;28;20430;-48
2024/01/09 04:59:30;;;;;;;6.80;4.07;;;;;;;;;;5077776;28;20445;-48
2024/01/09 05:01:56;;;;;;;5.17;3.70;;;;;;;;;;5077751;28;20438;-47
2024/01/09 05:04:23;;;;;;;6.27;4.60;;;;;;;;;;5077566;28;20749;-48
2024/01/09 05:06:50;;;;;;;6.93;4.10;;;;;;;;;;5077887;28;20468;-48
2024/01/09 05:09:16;;;;;;;5.70;4.30;;;;;;;;;;5077918;28;20440;-48
2024/01/09 05:11:42;;;;;;;5.03;4.13;;;;;;;;;;5077737;28;20823;-47
2024/01/09 05:14:08;;;;;;;5.83;4.00;;;;;;;;;;5077711;28;20503;-48
2024/01/09 05:16:34;;;;;;;6.50;4.63;;;;;;;;;;5077483;28;20216;-48
2024/01/09 05:19:00;;;;;;;5.73;4.23;;;;;;;;;;5077627;28;20797;-48
2024/01/09 05:21:28;;;;;;;5.67;4.53;;;;;;;;;;5077651;28;20428;-48
2024/01/09 05:23:53;;;;;;;4.70;4.03;;;;;;;;;;5077428;28;20211;-48
2024/01/09 05:26:19;;;;;;;6.43;4.60;;;;;;;;;;5077874;28;20442;-47
2024/01/09 05:28:45;;;;;;;5.47;4.27;;;;;;;;;;5077825;28;20206;-48
2024/01/09 05:31:11;;;;;;;5.50;4.13;;;;;;;;;;5074056;28;20454;-47
2024/01/09 05:33:37;;;;;;;6.70;4.27;;;;;;;;;;5074131;28;20479;-48
2024/01/09 05:36:04;;;;;;;4.80;3.87;;;;;;;;;;5074323;28;20222;-47
2024/01/09 05:38:31;;;;;;;5.87;4.10;;;;;;;;;;5074393;28;20206;-47
2024/01/09 05:40:57;;;;;;;4.80;3.87;;;;;;;;;;5074190;28;21050;-48
2024/01/09 05:43:23;;;;;;;6.80;4.00;;;;;;;;;;5074193;28;20430;-48
2024/01/09 05:45:49;;;;;;;6.37;3.77;;;;;;;;;;5074023;28;20545;-47
2024/01/09 05:48:15;;;;;;;7.43;3.90;;;;;;;;;;5074290;28;20530;-48
2024/01/09 05:50:41;;;;;;;6.53;4.13;;;;;;;;;;5073965;28;20499;-47
2024/01/09 05:53:08;;;;;;;5.00;3.80;;;;;;;;;;5073689;28;20449;-47
2024/01/09 05:55:35;;;;;;;7.33;4.53;;;;;;;;;;5073817;28;20550;-48
2024/01/09 05:58:01;;;;;;;7.03;4.17;;;;;;;;;;5073937;28;20484;-48
2024/01/09 06:00:27;;;;;;;7.10;4.67;;;;;;;;;;5074080;28;20445;-48
2024/01/09 06:02:53;;;;;;;4.67;4.13;;;;;;;;;;5073700;28;20520;-48
2024/01/09 06:05:19;;;;;;;6.13;4.50;;;;;;;;;;5073844;28;20844;-48
2024/01/09 06:07:45;;;;;;;6.57;4.73;;;;;;;;;;5073871;28;20522;-48
2024/01/09 06:10:12;;;;;;;6.30;4.43;;;;;;;;;;5073569;28;20465;-48
2024/01/09 06:12:39;;;;;;;6.13;4.20;;;;;;;;;;5073539;28;20516;-47
2024/01/09 06:15:05;;;;;;;6.07;4.27;;;;;;;;;;5073458;28;20481;-48
2024/01/09 06:17:31;;;;;;;5.97;4.30;;;;;;;;;;5073105;28;20552;-47
2024/01/09 06:20:00;;;;;;;5.40;4.27;;;;;;;;;;5073265;28;20524;-48
2024/01/09 06:22:26;;;;;;;6.97;4.57;;;;;;;;;;5073351;28;20430;-48
2024/01/09 06:24:52;;;;;;;6.67;4.70;;;;;;;;;;5073264;28;20430;-47
2024/01/09 06:27:18;;;;;;;6.33;4.67;;;;;;;;;;5073131;28;20445;-48
2024/01/09 06:29:45;;;;;;;7.37;5.40;;;;;;;;;;5073143;28;20199;-47
2024/01/09 06:32:11;;;;;;;6.87;4.73;;;;;;;;;;5073444;28;20214;-47
2024/01/09 06:34:37;;;;;;;5.27;4.03;;;;;;;;;;5072978;28;20485;-48
2024/01/09 06:37:03;;;;;;;5.23;4.17;;;;;;;;;;5073031;28;20192;-48
2024/01/09 06:39:29;;;;;;;6.57;4.47;;;;;;;;;;5073310;28;20223;-48
2024/01/09 06:41:55;;;;;;;5.67;4.23;;;;;;;;;;5071794;28;20987;-47
2024/01/09 06:44:21;;;;;;;6.30;4.30;;;;;;;;;;5072890;28;20434;-48
2024/01/09 06:46:49;;;;;;;5.77;4.53;;;;;;;;;;5072626;28;20723;-47
2024/01/09 06:49:15;;;;;;;6.33;4.80;;;;;;;;;;5072887;28;20207;-48
2024/01/09 06:51:41;;;;;;;6.07;4.63;;;;;;;;;;5072635;28;20491;-47
2024/01/09 06:54:07;;;;;;;6.23;4.33;;;;;;;;;;5072783;28;20224;-48
2024/01/09 06:56:33;;;;;;;6.27;4.50;;;;;;;;;;5072753;28;20438;-48
2024/01/09 06:58:59;;;;;;;5.83;4.13;;;;;;;;;;5072611;28;20199;-47
2024/01/09 07:01:26;;;;;;;5.00;3.73;;;;;;;;;;5074096;28;20438;-48
2024/01/09 07:03:53;;;;;;;5.57;3.80;;;;;;;;;;5072881;28;20513;-48
2024/01/09 07:06:19;;;;;;;5.10;4.10;;;;;;;;;;5072531;28;20505;-47
2024/01/09 07:08:45;;;;;;;5.50;4.30;;;;;;;;;;5072429;28;20957;-48
2024/01/09 07:11:11;;;;;;;7.57;4.47;;;;;;;;;;5072392;28;20505;-48
2024/01/09 07:13:37;;;;;;;4.63;4.00;;;;;;;;;;5072195;28;20583;-49
2024/01/09 07:16:03;;;;;;;5.57;4.17;;;;;;;;;;5072286;28;20441;-48
2024/01/09 07:18:29;;;;;;;6.40;4.57;;;;;;;;;;5072259;28;20289;-48
2024/01/09 07:20:57;;;;;;;4.83;4.10;;;;;;;;;;5072180;28;20441;-48
2024/01/09 07:23:23;;;;;;;5.87;4.20;;;;;;;;;;5071960;28;20446;-48
2024/01/09 07:25:49;;;;;;;6.33;3.90;;;;;;;;;;5071992;28;20459;-48
2024/01/09 07:28:15;;;;;;;5.83;4.20;;;;;;;;;;5072020;28;20442;-48
2024/01/09 07:30:41;;;;;;;9.73;4.50;;;;;;;;;;5071689;28;20202;-48
2024/01/09 07:33:07;;;;;;;7.00;4.60;;;;;;;;;;5070793;28;20430;-49
2024/01/09 07:35:37;;;;;;;4.90;3.80;;;;;;;;;;5071661;28;20440;-48
2024/01/09 07:38:04;;;;;;;6.53;4.70;;;;;;;;;;5071997;28;20200;-48
2024/01/09 07:40:30;;;;;;;5.37;4.00;;;;;;;;;;5071951;28;20442;-48
2024/01/09 07:42:58;;;;;;;5.60;3.93;;;;;;;;;;5071770;28;20513;-48
2024/01/09 07:45:28;;;;;;;5.10;4.20;;;;;;;;;;5071970;28;20512;-48
2024/01/09 07:47:54;;;;;;;5.20;4.17;;;;;;;;;;5071852;28;20446;-50
2024/01/09 07:50:20;;;;;;;5.13;4.17;;;;;;;;;;5071810;28;20426;-47
2024/01/09 07:52:47;;;;;;;5.93;4.03;;;;;;;;;;5071392;28;20658;-47
2024/01/09 07:55:14;;;;;;;5.17;4.30;;;;;;;;;;5071754;28;20481;-47
2024/01/09 07:57:40;;;;;;;6.07;4.33;;;;;;;;;;5071653;28;20438;-48
2024/01/09 08:00:07;;;;;;;6.20;4.90;;;;;;;;;;5071667;28;20524;-48
2024/01/09 08:02:33;;;;;;;6.17;4.20;;;;;;;;;;5071811;28;20471;-48
2024/01/09 08:04:59;;;;;;;4.90;4.03;;;;;;;;;;5071609;28;20442;-48
2024/01/09 08:07:25;;;;;;;6.57;4.07;;;;;;;;;;5071664;28;20754;-48
2024/01/09 08:09:51;;;;;;;6.30;4.37;;;;;;;;;;5071450;28;20188;-48
2024/01/09 08:12:18;;;;;;;5.43;3.77;;;;;;;;;;5071622;28;20523;-49
2024/01/09 08:14:44;;;;;;;4.57;3.57;;;;;;;;;;5071633;28;20816;-48
2024/01/09 08:17:10;;;;;;;6.37;3.60;;;;;;;;;;5071639;28;20446;-48
2024/01/09 08:19:36;;;;;;;5.00;3.80;;;;;;;;;;5071407;28;20438;-48
2024/01/09 08:22:02;;;;;;;4.30;3.80;;;;;;;;;;5071378;28;20456;-49
2024/01/09 08:24:28;;;;;;;5.87;4.37;;;;;;;;;;5071887;28;20203;-51
2024/01/09 08:26:54;;;;;;;8.10;5.70;;;;;;;;;;5071253;28;20441;-50
2024/01/09 08:29:26;;;;;;;8.93;5.90;;;;;;;;;;5071340;28;20190;-49
2024/01/09 08:31:52;;;;;;;9.07;6.17;;;;;;;;;;5071185;28;20286;-49
2024/01/09 08:34:18;;;;;;;6.87;4.90;;;;;;;;;;5071239;28;20556;-49
2024/01/09 08:36:45;;;;;;;6.43;4.90;;;;;;;;;;5071507;28;20199;-49
2024/01/09 08:39:12;;;;;;;7.50;5.10;;;;;;;;;;5071505;28;20434;-49
2024/01/09 08:41:38;;;;;;;5.60;4.27;;;;;;;;;;5071091;28;20426;-49
2024/01/09 08:44:04;;;;;;;5.93;4.30;;;;;;;;;;5071281;28;20554;-49
2024/01/09 08:46:31;;;;;;;6.17;4.17;;;;;;;;;;5072144;28;20979;-49
2024/01/09 08:48:57;;;;;;;5.10;4.00;;;;;;;;;;5070973;28;20434;-49
2024/01/09 08:51:23;;;;;;;5.23;4.43;;;;;;;;;;5071169;28;20452;-49
2024/01/09 08:53:49;;;;;;;7.43;4.60;;;;;;;;;;5070918;28;20226;-49
2024/01/09 08:56:15;;;;;;;5.43;4.23;;;;;;;;;;5071430;28;20205;-49
2024/01/09 08:58:41;;;;;;;5.60;3.87;;;;;;;;;;5070993;28;20605;-49
2024/01/09 09:01:07;;;;;;;8.37;4.80;;;;;;;;;;5070914;28;20433;-49
2024/01/09 09:03:34;;;;;;;8.90;5.87;;;;;;;;;;5070704;28;20434;-50
2024/01/09 09:06:00;;;;;;;8.47;6.33;;;;;;;;;;5073409;28;20453;-50
2024/01/09 09:08:26;;;;;;;44.03;25.30;;;;;;;;;;5074803;28;20429;-50
2024/01/09 09:10:52;;;;;;;8.70;6.17;;;;;;;;;;5074438;28;20238;-49
2024/01/09 09:13:18;;;;;;;8.57;5.00;;;;;;;;;;5074700;28;20446;-50
2024/01/09 09:15:44;;;;;;;7.20;4.83;;;;;;;;;;5074669;28;20204;-49
2024/01/09 09:18:10;;;;;;;7.33;4.37;;;;;;;;;;5074490;28;20311;-49
2024/01/09 09:20:37;;;;;;;7.97;4.97;;;;;;;;;;5074645;28;20199;-50
2024/01/09 09:23:05;;;;;;;5.53;4.73;;;;;;;;;;5074321;28;20204;-50
2024/01/09 09:25:31;;;;;;;6.13;4.73;;;;;;;;;;5074549;28;20210;-49
2024/01/09 09:27:58;;;;;;;5.70;4.50;;;;;;;;;;5074536;28;20196;-49
2024/01/09 09:30:25;;;;;;;5.93;4.17;;;;;;;;;;5074508;28;20218;-49
2024/01/09 09:32:51;;;;;;;6.70;5.40;;;;;;;;;;5074162;28;20195;-50
2024/01/09 09:35:18;;;;;;;5.87;4.17;;;;;;;;;;5074336;28;20315;-50
2024/01/09 09:37:45;;;;;;;6.20;4.97;;;;;;;;;;5074336;28;20207;-50
2024/01/09 09:40:12;;;;;;;5.50;4.80;;;;;;;;;;5074249;28;20227;-49
2024/01/09 09:42:39;;;;;;;32.40;23.93;;;;;;;;;;5074261;28;20261;-50
2024/01/09 09:45:09;;;;;;;20.87;14.90;;;;;;;;;;5073811;28;20184;-50
2024/01/09 09:47:35;;;;;;;6.80;5.53;;;;;;;;;;5073937;28;20199;-50
2024/01/09 09:50:01;;;;;;;14.53;10.27;;;;;;;;;;5073955;28;20657;-50
2024/01/09 09:52:28;;;;;;;47.80;24.83;;;;;;;;;;5073986;28;20298;-50
2024/01/09 09:54:57;;;;;;;9.00;5.77;;;;;;;;;;5073738;28;20642;-49
2024/01/09 09:57:23;;;;;;;68.80;36.30;;;;;;;;;;5073945;28;20208;-50
2024/01/09 09:59:49;;;;;;;102.33;53.50;;;;;;;;;;5073728;28;20697;-49
2024/01/09 10:02:21;;;;;;;38.80;21.40;;;;;;;;;;5073839;28;20206;-49
2024/01/09 10:04:47;;;;;;;94.07;48.07;;;;;;;;;;5073738;28;20203;-49
2024/01/09 10:07:16;;;;;;;8.07;6.50;;;;;;;;;;5073775;28;20563;-49
2024/01/09 10:09:46;;;;;;;6.70;4.90;;;;;;;;;;5073798;28;20233;-49
2024/01/09 10:12:14;;;;;;;5.93;4.57;;;;;;;;;;5073815;28;20236;-49
2024/01/09 10:14:55;;;;;;;7.43;5.70;;;;;;;;;;5073471;28;20231;-49
2024/01/09 10:17:21;;;;;;;6.03;4.97;;;;;;;;;;5073047;28;20215;-49
2024/01/09 10:19:47;;;;;;;6.73;4.83;;;;;;;;;;5073717;28;20198;-49
2024/01/09 10:22:13;;;;;;;5.57;4.57;;;;;;;;;;5073498;28;20203;-48
2024/01/09 10:24:40;;;;;;;6.43;4.50;;;;;;;;;;5073417;28;20231;-48
2024/01/09 10:27:08;;;;;;;5.57;4.60;;;;;;;;;;5073196;28;20219;-49
2024/01/09 10:29:38;;;;;;;5.10;3.93;;;;;;;;;;5073257;28;20613;-48
2024/01/09 10:32:04;;;;;;;5.67;4.03;;;;;;;;;;5073181;28;20211;-48
2024/01/09 10:34:30;;;;;;;5.47;4.30;;;;;;;;;;5072760;28;20245;-48
2024/01/09 10:37:06;;;;;;;5.70;4.17;;;;;;;;;;5072922;28;20646;-48
2024/01/09 10:39:32;;;;;;;6.90;4.93;;;;;;;;;;5073261;28;20199;-48
2024/01/09 10:42:03;;;;;;;8.90;7.20;;;;;;;;;;5073029;28;20204;-47
2024/01/09 10:44:30;;;;;;;12.27;9.70;;;;;;;;;;5073147;28;20669;-48
2024/01/09 10:46:57;;;;;;;6.27;5.00;;;;;;;;;;5072775;28;20195;-49
2024/01/09 10:49:25;;;;;;;6.20;5.33;;;;;;;;;;5072894;28;20207;-49
2024/01/09 10:51:53;;;;;;;10.50;8.50;;;;;;;;;;5072679;28;20624;-47
2024/01/09 10:54:19;;;;;;;7.40;6.63;;;;;;;;;;5072803;28;20311;-48
2024/01/09 10:56:46;;;;;;;5.80;4.60;;;;;;;;;;5072908;28;20207;-47
2024/01/09 10:59:15;;;;;;;6.33;4.90;;;;;;;;;;5072834;28;20207;-47
2024/01/09 11:01:41;;;;;;;5.00;4.20;;;;;;;;;;5072658;28;20187;-47
2024/01/09 11:04:09;;;;;;;4.40;3.83;;;;;;;;;;5072534;28;20719;-47
2024/01/09 11:06:36;;;;;;;6.33;4.50;;;;;;;;;;5072661;28;20208;-50
2024/01/09 11:09:04;;;;;;;5.30;4.10;;;;;;;;;;5072607;28;20283;-48
2024/01/09 11:11:31;;;;;;;4.97;4.37;;;;;;;;;;5072578;28;20794;-48
2024/01/09 11:14:00;;;;;;;4.93;3.70;;;;;;;;;;5072513;28;20219;-47
2024/01/09 11:16:26;;;;;;;3.93;3.47;;;;;;;;;;5072695;28;20199;-48
2024/01/09 11:18:53;;;;;;;7.33;4.00;;;;;;;;;;5072500;28;20244;-49
2024/01/09 11:21:25;;;;;;;5.40;4.30;;;;;;;;;;5072682;28;20200;-48
2024/01/09 11:23:58;;;;;;;6.03;3.97;;;;;;;;;;5072428;28;20614;-49
2024/01/09 11:26:27;;;;;;;4.47;3.63;;;;;;;;;;5072530;28;20204;-48
2024/01/09 11:28:53;;;;;;;4.97;3.30;;;;;;;;;;5071563;28;20840;-48
2024/01/09 11:31:20;;;;;;;6.53;4.30;;;;;;;;;;5072477;28;20199;-48
2024/01/09 11:33:47;;;;;;;4.93;3.93;;;;;;;;;;5072273;28;20219;-49
2024/01/09 11:36:18;;;;;;;5.63;4.07;;;;;;;;;;5072424;28;20617;-49
2024/01/09 11:38:45;;;;;;;4.53;3.80;;;;;;;;;;5072429;28;20270;-49
2024/01/09 11:41:11;;;;;;;4.77;3.83;;;;;;;;;;5072276;28;20207;-49
2024/01/09 11:43:59;;;;;;;5.50;4.33;;;;;;;;;;5072231;28;20195;-49
2024/01/09 11:46:26;;;;;;;4.77;4.00;;;;;;;;;;5072357;28;20199;-49
2024/01/09 11:48:53;;;;;;;5.17;3.97;;;;;;;;;;5071994;28;20206;-49
2024/01/09 11:51:19;;;;;;;5.13;3.93;;;;;;;;;;5072181;28;20268;-49
2024/01/09 11:53:46;;;;;;;4.63;3.50;;;;;;;;;;5072276;28;20203;-49
2024/01/09 11:56:13;;;;;;;4.80;4.30;;;;;;;;;;5072069;28;20204;-49
2024/01/09 11:58:39;;;;;;;4.87;4.03;;;;;;;;;;5071991;28;20600;-49
2024/01/09 12:01:05;;;;;;;6.20;4.30;;;;;;;;;;5071959;28;20242;-49
2024/01/09 12:03:33;;;;;;;4.90;3.93;;;;;;;;;;5071831;28;20226;-49
2024/01/09 12:05:59;;;;;;;6.50;5.80;;;;;;;;;;5071886;28;20213;-49
2024/01/09 12:08:25;;;;;;;5.03;3.77;;;;;;;;;;5071925;28;20191;-49
2024/01/09 12:10:53;;;;;;;5.00;3.87;;;;;;;;;;5071819;28;20234;-49
2024/01/09 12:13:19;;;;;;;4.27;3.30;;;;;;;;;;5071677;28;20301;-49
2024/01/09 12:15:45;;;;;;;6.70;4.03;;;;;;;;;;5071698;28;20228;-49
2024/01/09 12:18:12;;;;;;;5.40;4.10;;;;;;;;;;5071336;28;20241;-49
2024/01/09 12:20:38;;;;;;;4.77;3.20;;;;;;;;;;5071503;28;20203;-48
2024/01/09 12:23:05;;;;;;;4.60;3.40;;;;;;;;;;5071457;28;20256;-49
2024/01/09 12:25:31;;;;;;;3.80;3.17;;;;;;;;;;5071630;28;20200;-49
2024/01/09 12:27:59;;;;;;;5.40;3.73;;;;;;;;;;5071361;28;20662;-49
2024/01/09 12:30:25;;;;;;;4.97;3.77;;;;;;;;;;5071108;28;20210;-50
2024/01/09 12:32:53;;;;;;;5.23;3.80;;;;;;;;;;5069009;28;20231;-49
2024/01/09 12:35:19;;;;;;;6.50;4.13;;;;;;;;;;5071297;28;20296;-49
2024/01/09 12:37:46;;;;;;;5.90;3.43;;;;;;;;;;5069341;28;20658;-49
2024/01/09 12:40:15;;;;;;;5.90;4.53;;;;;;;;;;5074239;28;20619;-49
2024/01/09 12:42:41;;;;;;;4.60;4.20;;;;;;;;;;5075448;28;20195;-49
2024/01/09 12:45:12;;;;;;;5.17;3.60;;;;;;;;;;5075268;28;20195;-48
2024/01/09 12:47:38;;;;;;;3.73;2.97;;;;;;;;;;5075363;28;20199;-49
2024/01/09 12:50:05;;;;;;;10.93;7.53;;;;;;;;;;5071313;28;20565;-48
2024/01/09 12:52:31;;;;;;;3.63;3.23;;;;;;;;;;5075554;28;20204;-49
2024/01/09 12:54:59;;;;;;;8.67;6.93;;;;;;;;;;5075277;28;20318;-49
2024/01/09 12:57:25;;;;;;;6.30;5.47;;;;;;;;;;5075237;28;20556;-48
2024/01/09 12:59:50;;;;;;;5.33;4.20;;;;;;;;;;5075283;28;20202;-48
2024/01/09 13:02:19;;;;;;;6.53;4.10;;;;;;;;;;5074925;28;20238;-49
2024/01/09 13:04:48;;;;;;;4.37;3.20;;;;;;;;;;5075091;28;20261;-48
2024/01/09 13:07:16;;;;;;;5.57;2.90;;;;;;;;;;5075096;28;20256;-48
2024/01/09 13:09:42;;;;;;;7.23;5.53;;;;;;;;;;5075122;28;20204;-49
2024/01/09 13:12:10;;;;;;;6.23;5.17;;;;;;;;;;5074869;28;20231;-48
2024/01/09 13:14:36;;;;;;;10.53;7.10;;;;;;;;;;5074913;28;20231;-48
2024/01/09 13:17:02;;;;;;;6.87;3.30;;;;;;;;;;5074697;28;20249;-48
2024/01/09 13:19:30;;;;;;;5.47;4.40;;;;;;;;;;5075027;28;20203;-49
2024/01/09 13:21:56;;;;;;;6.80;3.90;;;;;;;;;;5074853;28;20187;-48
2024/01/09 13:24:22;;;;;;;5.33;4.50;;;;;;;;;;5074787;28;20194;-48
2024/01/09 13:26:48;;;;;;;5.40;2.70;;;;;;;;;;5074676;28;20195;-49
2024/01/09 13:29:14;;;;;;;7.50;5.10;;;;;;;;;;5074678;28;20191;-49
2024/01/09 13:31:40;;;;;;;4.60;4.10;;;;;;;;;;5074730;28;20196;-49
2024/01/09 13:34:06;;;;;;;4.23;3.30;;;;;;;;;;5074376;28;20223;-48
2024/01/09 13:36:33;;;;;;;6.17;2.80;;;;;;;;;;5074501;28;20222;-48
2024/01/09 13:38:59;;;;;;;4.10;2.97;;;;;;;;;;5074611;28;20211;-49
2024/01/09 13:41:25;;;;;;;5.03;3.60;;;;;;;;;;5074418;28;20954;-48
2024/01/09 13:43:51;;;;;;;6.00;3.70;;;;;;;;;;5074309;28;20195;-48
2024/01/09 13:46:17;;;;;;;3.20;2.90;;;;;;;;;;5074372;28;20642;-48
2024/01/09 13:48:45;;;;;;;3.80;2.57;;;;;;;;;;5074332;28;20200;-48
2024/01/09 13:51:12;;;;;;;5.93;3.83;;;;;;;;;;5073311;28;20677;-48
2024/01/09 13:53:39;;;;;;;4.00;2.80;;;;;;;;;;5074176;28;20912;-48
2024/01/09 13:56:06;;;;;;;3.10;2.67;;;;;;;;;;5074168;28;20434;-48
2024/01/09 13:58:32;;;;;;;3.73;2.90;;;;;;;;;;5074244;28;20449;-48
2024/01/09 14:00:58;;;;;;;3.57;2.67;;;;;;;;;;5074019;28;21022;-48
2024/01/09 14:03:28;;;;;;;3.80;3.13;;;;;;;;;;5073994;28;20501;-49
2024/01/09 14:05:54;;;;;;;3.27;2.60;;;;;;;;;;5074023;28;20521;-48
2024/01/09 14:08:20;;;;;;;4.73;3.20;;;;;;;;;;5073706;28;20512;-48
2024/01/09 14:10:48;;;;;;;3.50;3.20;;;;;;;;;;5073754;28;20235;-48
2024/01/09 14:13:14;;;;;;;3.77;2.57;;;;;;;;;;5073718;28;20457;-48
2024/01/09 14:15:40;;;;;;;2.60;2.37;;;;;;;;;;5073421;28;20527;-48
2024/01/09 14:18:06;;;;;;;3.57;2.80;;;;;;;;;;5073505;28;20442;-48
2024/01/09 14:20:32;;;;;;;4.20;2.60;;;;;;;;;;5073773;28;20298;-48
2024/01/09 14:22:58;;;;;;;3.77;2.77;;;;;;;;;;5073775;28;20430;-48
2024/01/09 14:25:26;;;;;;;5.30;3.00;;;;;;;;;;5073673;28;20426;-49
2024/01/09 14:27:53;;;;;;;4.73;3.23;;;;;;;;;;5073437;28;21170;-48
2024/01/09 14:30:19;;;;;;;3.93;3.30;;;;;;;;;;5073438;28;20524;-49
2024/01/09 14:32:45;;;;;;;5.03;3.57;;;;;;;;;;5073510;28;20464;-49
2024/01/09 14:35:12;;;;;;;4.83;4.33;;;;;;;;;;5071264;28;20469;-48
2024/01/09 14:37:41;;;;;;;4.97;3.47;;;;;;;;;;5073067;28;20429;-48
2024/01/09 14:40:10;;;;;;;3.73;3.20;;;;;;;;;;5073018;28;20437;-49